Time;durP1;ratioP1;P1;durP2;ratioP2;P2;SDS_P1;SDS_P2;PMS_P1;PMS_P2;Temp;Humidity;BMP_temperature;BMP_pressure;BME280_temperature;BME280_humidity;BME280_pressure;Samples;Min_cycle;Max_cycle;Signal;HPM_P1;HPM_P2
2023/07/28 00:01:38;;;;;;;2.60;2.20;;;16.10;99.90;;;;;;4991480;28;20463;-77
2023/07/28 00:04:07;;;;;;;2.23;1.90;;;16.10;99.90;;;;;;4991012;28;20463;-77
2023/07/28 00:06:33;;;;;;;1.97;1.77;;;16.10;99.90;;;;;;4990256;28;20471;-78
2023/07/28 00:09:01;;;;;;;2.00;1.83;;;16.10;99.90;;;;;;4991210;28;20565;-78
2023/07/28 00:11:28;;;;;;;3.07;2.00;;;16.10;99.90;;;;;;4991224;28;20490;-77
2023/07/28 00:13:55;;;;;;;2.43;2.20;;;16.20;99.90;;;;;;4993248;28;20463;-79
2023/07/28 00:16:22;;;;;;;2.40;1.83;;;16.20;99.90;;;;;;4993346;28;20467;-78
2023/07/28 00:18:48;;;;;;;2.63;2.33;;;16.30;99.90;;;;;;4993485;28;20844;-78
2023/07/28 00:21:15;;;;;;;2.40;2.03;;;16.30;99.90;;;;;;5000956;28;20466;-78
2023/07/28 00:23:42;;;;;;;2.60;1.77;;;16.30;99.90;;;;;;5012795;28;20463;-78
2023/07/28 00:26:10;;;;;;;2.90;2.00;;;16.30;99.90;;;;;;5012219;28;20467;-78
2023/07/28 00:28:37;;;;;;;2.10;1.90;;;16.40;99.90;;;;;;5012163;28;21025;-77
2023/07/28 00:31:03;;;;;;;3.13;2.30;;;16.40;99.90;;;;;;5010831;28;20466;-77
2023/07/28 00:33:30;;;;;;;2.20;2.00;;;16.40;99.90;;;;;;5010443;28;20566;-78
2023/07/28 00:35:57;;;;;;;2.40;2.00;;;16.40;99.90;;;;;;5012046;28;20478;-78
2023/07/28 00:38:24;;;;;;;2.60;2.40;;;16.40;99.90;;;;;;5011359;28;20529;-78
2023/07/28 00:40:50;;;;;;;2.53;2.33;;;16.40;99.90;;;;;;5012454;28;20463;-78
2023/07/28 00:43:19;;;;;;;2.23;2.03;;;16.40;99.90;;;;;;5011199;28;20958;-77
2023/07/28 00:45:46;;;;;;;2.73;2.00;;;16.40;99.90;;;;;;5010822;28;20550;-77
2023/07/28 00:48:15;;;;;;;2.20;1.90;;;16.40;99.90;;;;;;5010982;28;20499;-78
2023/07/28 00:50:43;;;;;;;3.30;2.20;;;16.40;99.90;;;;;;5011452;28;20490;-77
2023/07/28 00:53:09;;;;;;;2.30;2.00;;;16.40;99.90;;;;;;5011906;28;20506;-78
2023/07/28 00:55:36;;;;;;;2.10;1.90;;;16.40;99.90;;;;;;5011068;28;20468;-78
2023/07/28 00:58:03;;;;;;;2.10;1.90;;;16.40;99.90;;;;;;5011225;28;20561;-78
2023/07/28 01:00:31;;;;;;;2.07;1.77;;;16.40;99.90;;;;;;5011909;28;20982;-78
2023/07/28 01:02:58;;;;;;;2.30;2.00;;;16.40;99.90;;;;;;5011649;28;20455;-77
2023/07/28 01:05:30;;;;;;;2.33;2.00;;;16.40;99.90;;;;;;5011045;28;20466;-78
2023/07/28 01:08:03;;;;;;;2.60;2.07;;;16.40;99.90;;;;;;5010935;28;20490;-78
2023/07/28 01:10:32;;;;;;;2.30;2.00;;;16.40;99.90;;;;;;5011407;28;20523;-78
2023/07/28 01:12:59;;;;;;;3.37;2.30;;;16.30;99.90;;;;;;5011496;28;21014;-78
2023/07/28 01:15:26;;;;;;;2.77;2.50;;;16.30;99.90;;;;;;5010812;28;20475;-78
2023/07/28 01:17:54;;;;;;;2.40;1.80;;;16.30;99.90;;;;;;5011394;28;20483;-78
2023/07/28 01:20:23;;;;;;;2.40;1.90;;;16.30;99.90;;;;;;5014839;28;20981;-77
2023/07/28 01:23:09;;;;;;;2.83;2.40;;;16.30;99.90;;;;;;5014948;28;21226;-77
2023/07/28 01:25:49;;;;;;;2.20;2.00;;;16.30;99.90;;;;;;5014677;28;20461;-77
2023/07/28 01:28:18;;;;;;;2.70;1.60;;;16.20;99.90;;;;;;5014981;28;20493;-78
2023/07/28 01:30:45;;;;;;;1.97;1.57;;;16.30;99.90;;;;;;5014574;28;20866;-77
2023/07/28 01:33:14;;;;;;;3.23;1.87;;;16.20;99.90;;;;;;5014711;28;20488;-77
2023/07/28 01:35:41;;;;;;;2.13;1.93;;;16.20;99.90;;;;;;5004015;28;20470;-78
2023/07/28 01:38:08;;;;;;;3.20;2.07;;;16.20;99.90;;;;;;4994874;28;20518;-78
2023/07/28 01:40:34;;;;;;;2.20;2.00;;;16.10;99.90;;;;;;5004575;28;20484;-78
2023/07/28 01:43:01;;;;;;;2.27;2.07;;;16.10;99.90;;;;;;5014988;28;20482;-78
2023/07/28 01:45:29;;;;;;;2.37;2.17;;;16.00;99.90;;;;;;5014358;28;20467;-78
2023/07/28 01:47:56;;;;;;;2.20;2.00;;;16.00;99.90;;;;;;5014387;28;20487;-78
2023/07/28 01:50:23;;;;;;;2.30;2.10;;;16.00;99.90;;;;;;5014830;28;20824;-78
2023/07/28 01:52:49;;;;;;;2.47;1.90;;;16.00;99.90;;;;;;5014836;28;20484;-78
2023/07/28 01:55:16;;;;;;;2.27;1.90;;;16.00;99.90;;;;;;5014767;28;20961;-77
2023/07/28 01:57:52;;;;;;;3.17;2.40;;;16.00;99.90;;;;;;5013700;28;20487;-78
2023/07/28 02:00:19;;;;;;;2.73;2.10;;;16.10;99.90;;;;;;5014722;28;20466;-78
2023/07/28 02:02:47;;;;;;;2.20;2.00;;;16.10;99.90;;;;;;5014121;28;20459;-78
2023/07/28 02:05:14;;;;;;;2.70;2.23;;;16.20;99.90;;;;;;5013136;28;20469;-75
2023/07/28 02:07:41;;;;;;;1.80;1.60;;;16.20;99.90;;;;;;5012269;28;20487;-77
2023/07/28 02:10:08;;;;;;;2.90;1.87;;;16.20;99.90;;;;;;5013998;28;20468;-78
2023/07/28 02:12:35;;;;;;;2.57;2.37;;;16.20;99.90;;;;;;5013850;28;20484;-78
2023/07/28 02:15:02;;;;;;;2.07;1.60;;;16.20;99.90;;;;;;5014353;28;20466;-78
2023/07/28 02:17:28;;;;;;;2.30;1.70;;;16.20;99.90;;;;;;5013442;28;20486;-78
2023/07/28 02:19:56;;;;;;;2.50;2.10;;;16.10;99.90;;;;;;5013959;28;20467;-77
2023/07/28 02:22:23;;;;;;;2.10;1.90;;;16.00;99.90;;;;;;5014547;28;20958;-78
2023/07/28 02:24:50;;;;;;;2.20;1.83;;;16.00;99.90;;;;;;5013668;28;20463;-78
2023/07/28 02:27:17;;;;;;;2.40;2.20;;;15.90;99.90;;;;;;5013545;28;20468;-78
2023/07/28 02:29:44;;;;;;;1.93;1.70;;;16.00;99.90;;;;;;5013075;28;20467;-78
2023/07/28 02:32:10;;;;;;;1.93;1.70;;;16.00;99.90;;;;;;5013616;28;20482;-78
2023/07/28 02:34:37;;;;;;;2.33;2.13;;;16.00;99.90;;;;;;5013706;28;20458;-78
2023/07/28 02:37:05;;;;;;;2.47;2.17;;;16.00;99.90;;;;;;5013835;28;20468;-78
2023/07/28 02:39:32;;;;;;;2.57;2.10;;;16.00;99.90;;;;;;5013343;28;20473;-78
2023/07/28 02:41:59;;;;;;;2.27;2.07;;;16.10;99.90;;;;;;5014020;28;20484;-78
2023/07/28 02:44:26;;;;;;;2.00;1.73;;;16.10;99.90;;;;;;5013544;28;20467;-79
2023/07/28 02:46:52;;;;;;;3.57;2.20;;;16.20;99.90;;;;;;5013056;28;20493;-78
2023/07/28 02:49:19;;;;;;;2.10;1.90;;;16.20;99.90;;;;;;5013448;28;20489;-78
2023/07/28 02:51:46;;;;;;;2.53;2.07;;;16.20;99.90;;;;;;5013552;28;20467;-78
2023/07/28 02:54:14;;;;;;;2.20;2.00;;;16.30;99.90;;;;;;5013352;28;20501;-78
2023/07/28 02:56:41;;;;;;;2.63;2.00;;;16.30;99.90;;;;;;5012670;28;20998;-78
2023/07/28 02:59:07;;;;;;;2.50;2.30;;;16.30;99.90;;;;;;5013398;28;20478;-78
2023/07/28 03:01:35;;;;;;;2.73;2.10;;;16.30;99.90;;;;;;5012714;28;20467;-77
2023/07/28 03:04:02;;;;;;;2.27;1.90;;;16.30;99.90;;;;;;5013027;28;20465;-78
2023/07/28 03:06:28;;;;;;;1.77;1.60;;;16.30;99.90;;;;;;5013237;28;20491;-78
2023/07/28 03:08:55;;;;;;;2.70;2.00;;;16.30;99.90;;;;;;4994853;28;20490;-78
2023/07/28 03:11:24;;;;;;;3.03;1.77;;;16.30;99.90;;;;;;4993955;28;20467;-78
2023/07/28 03:13:50;;;;;;;2.70;2.07;;;16.30;99.90;;;;;;4993339;28;20480;-78
2023/07/28 03:16:17;;;;;;;2.07;1.87;;;16.30;99.90;;;;;;4993081;28;20469;-77
2023/07/28 03:18:44;;;;;;;2.97;2.07;;;16.40;99.90;;;;;;4992905;28;20489;-78
2023/07/28 03:21:10;;;;;;;1.80;1.63;;;16.40;99.90;;;;;;4993529;28;20652;-78
2023/07/28 03:23:37;;;;;;;2.07;1.87;;;16.50;99.90;;;;;;4993248;28;20459;-78
2023/07/28 03:26:04;;;;;;;1.73;1.63;;;16.50;99.90;;;;;;4997937;28;20464;-78
2023/07/28 03:28:32;;;;;;;2.37;2.17;;;16.50;99.90;;;;;;5012206;28;21019;-78
2023/07/28 03:30:59;;;;;;;2.87;2.17;;;16.60;99.90;;;;;;5003282;28;20467;-78
2023/07/28 03:33:25;;;;;;;3.00;2.47;;;16.60;99.90;;;;;;5011459;28;21045;-78
2023/07/28 03:35:52;;;;;;;1.90;1.80;;;16.60;99.90;;;;;;5011472;28;20467;-78
2023/07/28 03:38:19;;;;;;;2.27;1.80;;;16.70;99.90;;;;;;5011285;28;20483;-79
2023/07/28 03:40:46;;;;;;;3.10;2.00;;;16.70;99.90;;;;;;5011197;28;20467;-77
2023/07/28 03:43:13;;;;;;;2.43;2.23;;;16.80;99.90;;;;;;5010466;28;20949;-77
2023/07/28 03:45:41;;;;;;;2.40;2.10;;;16.80;99.90;;;;;;5010820;28;20477;-77
2023/07/28 03:48:08;;;;;;;2.50;2.30;;;16.80;99.90;;;;;;5011131;28;20489;-78
2023/07/28 03:50:35;;;;;;;2.80;2.37;;;16.80;99.90;;;;;;5011102;28;20473;-78
2023/07/28 03:53:01;;;;;;;2.53;1.50;;;16.80;99.90;;;;;;5011386;28;20506;-78
2023/07/28 03:55:28;;;;;;;1.77;1.67;;;16.80;99.90;;;;;;5011095;28;20494;-78
2023/07/28 03:57:55;;;;;;;2.40;1.77;;;16.80;99.90;;;;;;5010932;28;20528;-78
2023/07/28 04:00:22;;;;;;;2.13;1.77;;;16.80;99.90;;;;;;5011447;28;20463;-78
2023/07/28 04:02:50;;;;;;;1.70;1.50;;;16.80;99.90;;;;;;5011470;28;20459;-78
2023/07/28 04:05:16;;;;;;;3.97;2.07;;;16.80;99.90;;;;;;5011437;28;20459;-78
2023/07/28 04:07:43;;;;;;;2.73;2.40;;;16.80;99.90;;;;;;5011385;28;20517;-78
2023/07/28 04:10:10;;;;;;;2.10;1.90;;;16.80;99.90;;;;;;5011290;28;20478;-78
2023/07/28 04:12:37;;;;;;;2.60;2.40;;;16.70;99.90;;;;;;5011254;28;20467;-78
2023/07/28 04:15:04;;;;;;;2.20;2.00;;;16.70;99.90;;;;;;5011354;28;20939;-78
2023/07/28 04:17:31;;;;;;;3.50;2.30;;;16.70;99.90;;;;;;5010675;28;20487;-78
2023/07/28 04:19:59;;;;;;;4.30;2.07;;;16.70;99.90;;;;;;5011503;28;20811;-78
2023/07/28 04:22:25;;;;;;;4.27;2.20;;;16.80;99.90;;;;;;5009305;28;20467;-78
2023/07/28 04:24:53;;;;;;;2.10;2.00;;;16.80;99.90;;;;;;5008995;28;20466;-78
2023/07/28 04:27:20;;;;;;;1.70;1.60;;;16.80;99.90;;;;;;5002275;28;20486;-78
2023/07/28 04:29:47;;;;;;;2.43;2.10;;;16.80;99.90;;;;;;5009303;28;20468;-78
2023/07/28 04:32:14;;;;;;;2.30;2.10;;;16.80;99.90;;;;;;5030563;23;20883;-93
2023/07/28 04:34:40;;;;;;;2.70;1.77;;;16.90;99.90;;;;;;5005419;28;20502;-93
2023/07/28 04:37:08;;;;;;;2.33;2.10;;;16.90;99.90;;;;;;5011887;28;20486;-94
2023/07/28 04:39:35;;;;;;;2.80;2.60;;;16.90;99.90;;;;;;5011628;28;20485;-92
2023/07/28 04:42:02;;;;;;;2.50;2.17;;;16.90;99.90;;;;;;5003688;28;20490;-93
2023/07/28 04:44:28;;;;;;;1.90;1.77;;;16.90;99.90;;;;;;5002306;28;20467;-92
2023/07/28 04:46:55;;;;;;;2.40;2.00;;;16.90;99.90;;;;;;5004776;28;20492;-93
2023/07/28 04:49:22;;;;;;;3.00;1.90;;;16.90;99.90;;;;;;4999936;28;20814;-92
2023/07/28 04:51:49;;;;;;;4.37;2.47;;;16.90;99.90;;;;;;5003382;28;21006;-92
2023/07/28 04:54:17;;;;;;;2.80;2.07;;;16.90;99.90;;;;;;5007911;28;20539;-91
2023/07/28 04:56:49;;;;;;;1.97;1.70;;;16.90;99.90;;;;;;5011108;28;20473;-92
2023/07/28 04:59:16;;;;;;;2.70;1.87;;;16.90;99.90;;;;;;5007214;28;20474;-93
2023/07/28 05:01:43;;;;;;;3.00;2.43;;;16.90;99.90;;;;;;5007682;28;20485;-92
2023/07/28 05:04:09;;;;;;;2.67;2.40;;;16.90;99.90;;;;;;5011535;28;20574;-94
2023/07/28 05:06:36;;;;;;;2.03;1.63;;;16.90;99.90;;;;;;5011805;28;20456;-92
2023/07/28 05:09:03;;;;;;;2.27;1.93;;;16.90;99.90;;;;;;5010754;28;20450;-92
2023/07/28 05:11:31;;;;;;;2.30;2.10;;;16.90;99.90;;;;;;5007483;28;20485;-94
2023/07/28 05:13:58;;;;;;;2.90;2.27;;;16.90;99.90;;;;;;5009448;28;20490;-92
2023/07/28 05:16:25;;;;;;;2.27;2.07;;;16.90;99.90;;;;;;5005926;28;20983;-93
2023/07/28 05:18:51;;;;;;;2.80;2.50;;;16.80;99.90;;;;;;5007920;28;20508;-92
2023/07/28 05:21:18;;;;;;;3.20;2.20;;;16.80;99.90;;;;;;5008927;28;20460;-93
2023/07/28 05:23:45;;;;;;;2.53;2.20;;;16.80;99.90;;;;;;5008636;28;20461;-92
2023/07/28 05:26:11;;;;;;;4.00;2.70;;;16.80;99.90;;;;;;5001175;28;20544;-92
2023/07/28 05:28:39;;;;;;;2.90;2.10;;;16.80;99.90;;;;;;5009174;28;20464;-91
2023/07/28 05:31:07;;;;;;;2.67;2.23;;;16.80;99.90;;;;;;5008982;28;20461;-91
2023/07/28 05:33:33;;;;;;;2.73;1.97;;;16.80;99.90;;;;;;5007556;28;20951;-91
2023/07/28 05:36:01;;;;;;;3.90;2.17;;;16.80;99.90;;;;;;5004980;28;20475;-91
2023/07/28 05:38:28;;;;;;;2.50;2.30;;;16.70;99.90;;;;;;5003740;28;20537;-92
2023/07/28 05:40:57;;;;;;;2.10;1.90;;;16.70;99.90;;;;;;5005269;28;20469;-91
2023/07/28 05:43:24;;;;;;;2.37;2.17;;;16.80;99.90;;;;;;5007121;28;20456;-91
2023/07/28 05:45:52;;;;;;;2.80;2.27;;;16.80;99.90;;;;;;5005960;28;20464;-91
2023/07/28 05:48:19;;;;;;;1.93;1.73;;;16.80;99.90;;;;;;5004304;28;20890;-92
2023/07/28 05:50:46;;;;;;;3.17;2.30;;;16.80;99.90;;;;;;5004405;28;20970;-91
2023/07/28 05:53:13;;;;;;;3.63;2.60;;;16.80;99.90;;;;;;5007560;28;20491;-91
2023/07/28 05:55:40;;;;;;;2.80;2.40;;;16.90;99.90;;;;;;5007409;28;20463;-92
2023/07/28 05:58:07;;;;;;;3.30;2.60;;;16.90;99.90;;;;;;5003660;28;20465;-92
2023/07/28 06:00:33;;;;;;;2.47;2.17;;;16.90;99.90;;;;;;5003891;28;20471;-91
2023/07/28 06:03:01;;;;;;;3.17;2.20;;;17.00;99.90;;;;;;5005422;28;20488;-92
2023/07/28 06:05:28;;;;;;;3.97;2.73;;;17.00;99.90;;;;;;5005115;28;20468;-92
2023/07/28 06:07:55;;;;;;;4.07;3.00;;;17.00;99.90;;;;;;5004701;28;20460;-92
2023/07/28 06:10:21;;;;;;;4.27;2.57;;;17.00;99.90;;;;;;5006644;28;20467;-93
2023/07/28 06:12:48;;;;;;;2.70;2.50;;;17.00;99.90;;;;;;4998897;28;20856;-92
2023/07/28 06:15:15;;;;;;;2.40;2.20;;;17.10;99.90;;;;;;5006899;28;20487;-93
2023/07/28 06:17:42;;;;;;;3.00;2.70;;;17.10;99.90;;;;;;5007223;28;20463;-91
2023/07/28 06:20:11;;;;;;;2.33;2.10;;;17.10;99.90;;;;;;5002445;28;20466;-91
2023/07/28 06:22:38;;;;;;;3.03;2.63;;;17.10;99.90;;;;;;5007129;28;20531;-92
2023/07/28 06:25:05;;;;;;;4.27;2.93;;;17.10;99.90;;;;;;5004366;28;20457;-91
2023/07/28 06:27:32;;;;;;;5.93;2.87;;;17.20;99.90;;;;;;5004259;28;20963;-92
2023/07/28 06:29:58;;;;;;;3.20;2.83;;;17.20;99.90;;;;;;5007325;28;20466;-92
2023/07/28 06:32:27;;;;;;;3.27;2.80;;;17.20;99.90;;;;;;5009195;28;20496;-92
2023/07/28 06:38:46;;;;;;;;;;;;;;;;;;;;;
2023/07/28 06:44:41;;;;;;;3.80;2.80;;;17.30;99.90;;;;;;4982338;28;20829;-91
2023/07/28 06:47:08;;;;;;;2.63;2.43;;;17.30;99.90;;;;;;5005707;28;20553;-93
2023/07/28 06:49:34;;;;;;;3.47;2.77;;;17.30;99.90;;;;;;5007716;28;20466;-90
2023/07/28 06:52:01;;;;;;;2.80;2.40;;;17.40;99.90;;;;;;5004435;28;20481;-91
2023/07/28 06:54:30;;;;;;;2.73;2.40;;;17.40;99.90;;;;;;5000078;28;20482;-90
2023/07/28 06:56:57;;;;;;;3.57;2.60;;;17.40;99.90;;;;;;5005319;28;20464;-91
2023/07/28 06:59:26;;;;;;;3.10;2.67;;;17.40;99.90;;;;;;5003501;28;20469;-90
2023/07/28 07:01:54;;;;;;;2.63;2.43;;;17.50;99.90;;;;;;5003438;28;20482;-91
2023/07/28 07:05:24;;;;;;;3.50;2.63;;;17.50;99.90;;;;;;5007098;28;20466;-90
2023/07/28 07:07:54;;;;;;;2.60;2.40;;;17.60;99.90;;;;;;4962711;28;20469;-92
2023/07/28 07:10:23;;;;;;;3.03;2.17;;;17.60;99.90;;;;;;4966269;28;20470;-91
2023/07/28 07:15:30;;;;;;;3.53;2.20;;;17.80;99.90;;;;;;5004112;28;20486;-90
2023/07/28 07:17:58;;;;;;;2.47;2.27;;;17.80;99.90;;;;;;5004653;28;20458;-92
2023/07/28 07:20:25;;;;;;;3.10;2.27;;;17.90;99.90;;;;;;5015508;28;20981;-91
2023/07/28 07:22:52;;;;;;;2.60;2.40;;;17.90;99.90;;;;;;5006209;28;20481;-90
2023/07/28 07:25:34;;;;;;;2.70;2.50;;;18.00;99.90;;;;;;5002850;28;20483;-90
2023/07/28 07:28:01;;;;;;;2.40;2.20;;;18.00;99.90;;;;;;5003266;28;20466;-92
2023/07/28 07:30:28;;;;;;;3.20;2.33;;;18.00;99.90;;;;;;5006069;28;20839;-91
2023/07/28 07:33:31;;;;;;;2.40;2.20;;;18.10;99.90;;;;;;5005341;28;20575;-92
2023/07/28 07:36:36;;;;;;;2.50;2.30;;;18.10;99.90;;;;;;5013019;28;20475;-93
2023/07/28 07:39:20;;;;;;;2.83;2.60;;;18.20;99.90;;;;;;4996681;28;20490;-92
2023/07/28 07:41:59;;;;;;;2.70;2.50;;;18.40;99.90;;;;;;5010099;28;20476;-95
2023/07/28 07:44:47;;;;;;;3.13;2.60;;;18.40;99.90;;;;;;5029594;28;20456;-91
2023/07/28 07:53:23;;;;;;;3.50;2.30;;;18.60;99.90;;;;;;5005447;28;20601;-92
2023/07/28 07:55:50;;;;;;;3.10;2.80;;;18.50;99.90;;;;;;4990756;28;20507;-91
2023/07/28 07:58:27;;;;;;;2.50;2.07;;;18.50;99.90;;;;;;4993652;28;20511;-92
2023/07/28 08:03:57;;;;;;;2.73;2.50;;;18.50;99.90;;;;;;4991733;28;20446;-92
2023/07/28 08:06:57;;;;;;;;;;;;;;;;;;;;;
2023/07/28 08:09:25;;;;;;;2.50;2.30;;;18.60;99.90;;;;;;4993805;28;20476;-91
2023/07/28 08:12:02;;;;;;;2.50;2.30;;;18.70;99.90;;;;;;4993511;28;20486;-93
2023/07/28 08:14:30;;;;;;;2.53;2.03;;;18.70;99.90;;;;;;4994126;28;20488;-91
2023/07/28 08:16:57;;;;;;;2.50;2.30;;;18.80;99.90;;;;;;4993927;28;20462;-92
2023/07/28 08:19:23;;;;;;;2.10;1.90;;;18.90;99.90;;;;;;4993234;28;20471;-92
2023/07/28 08:21:52;;;;;;;2.63;2.40;;;19.10;99.90;;;;;;4993024;28;20541;-92
2023/07/28 08:24:20;;;;;;;7.13;2.27;;;19.20;99.90;;;;;;4994089;28;20948;-91
2023/07/28 08:26:46;;;;;;;2.50;2.20;;;19.30;99.90;;;;;;5003620;28;20564;-91
2023/07/28 08:29:13;;;;;;;2.27;2.00;;;19.50;99.90;;;;;;5004754;28;20462;-91
2023/07/28 08:31:42;;;;;;;2.60;2.40;;;19.60;99.90;;;;;;5014950;28;20513;-91
2023/07/28 08:34:09;;;;;;;4.93;2.40;;;19.60;99.90;;;;;;5018103;28;20491;-93
2023/07/28 08:36:36;;;;;;;2.17;1.97;;;19.60;99.90;;;;;;5019117;28;20472;-93
2023/07/28 08:39:03;;;;;;;2.30;1.97;;;19.80;99.90;;;;;;5018962;28;20964;-92
2023/07/28 08:41:30;;;;;;;3.27;2.13;;;19.90;99.90;;;;;;5018804;28;20491;-92
2023/07/28 08:43:57;;;;;;;2.30;2.10;;;20.00;99.90;;;;;;5018360;28;20465;-92
2023/07/28 08:46:24;;;;;;;3.13;2.50;;;20.10;99.90;;;;;;5018676;28;20520;-92
2023/07/28 08:48:52;;;;;;;2.07;1.90;;;20.20;99.90;;;;;;5019501;28;20466;-92
2023/07/28 08:51:18;;;;;;;2.23;2.07;;;20.30;99.90;;;;;;5022733;28;20461;-93
2023/07/28 08:53:45;;;;;;;2.13;1.80;;;20.40;99.90;;;;;;5022202;28;20466;-93
2023/07/28 08:56:12;;;;;;;3.53;2.50;;;20.50;99.90;;;;;;5015342;28;20457;-92
2023/07/28 08:58:41;;;;;;;2.17;1.93;;;20.60;99.90;;;;;;5019967;28;20457;-92
2023/07/28 09:01:15;;;;;;;1.80;1.70;;;20.60;99.90;;;;;;5023461;28;20493;-93
2023/07/28 09:03:43;;;;;;;2.37;2.17;;;20.70;99.90;;;;;;5024180;28;20457;-92
2023/07/28 09:06:11;;;;;;;2.17;1.97;;;20.70;99.90;;;;;;5027683;28;20452;-93
2023/07/28 09:08:38;;;;;;;2.60;1.87;;;20.70;99.90;;;;;;5031558;28;20435;-92
2023/07/28 09:11:07;;;;;;;2.40;2.13;;;20.60;99.90;;;;;;5030236;28;20963;-91
2023/07/28 09:13:39;;;;;;;2.30;2.10;;;20.60;99.90;;;;;;5032573;28;20465;-92
2023/07/28 09:16:06;;;;;;;3.00;2.20;;;20.60;99.90;;;;;;5039002;28;20490;-92
2023/07/28 09:18:33;;;;;;;2.30;2.10;;;20.70;99.90;;;;;;5032908;28;20525;-92
2023/07/28 09:21:00;;;;;;;4.50;1.73;;;20.80;99.90;;;;;;5034639;28;20461;-91
2023/07/28 09:23:31;;;;;;;1.70;1.60;;;21.00;99.90;;;;;;5036312;28;20534;-92
2023/07/28 09:26:02;;;;;;;2.17;1.97;;;21.10;99.90;;;;;;5036989;28;20531;-91
2023/07/28 09:28:38;;;;;;;3.10;2.03;;;21.20;99.90;;;;;;5038213;28;20482;-93
2023/07/28 09:31:06;;;;;;;2.10;1.90;;;21.10;99.90;;;;;;5037252;28;20486;-92
2023/07/28 09:33:35;;;;;;;2.50;2.03;;;21.10;99.90;;;;;;5039619;28;20472;-92
2023/07/28 09:36:09;;;;;;;1.83;1.40;;;21.10;99.90;;;;;;5037841;28;20487;-92
2023/07/28 09:38:40;;;;;;;2.97;2.07;;;21.10;99.90;;;;;;5035939;28;20531;-93
2023/07/28 09:41:09;;;;;;;2.87;2.03;;;21.20;99.90;;;;;;5036365;28;20475;-92
2023/07/28 09:43:36;;;;;;;3.60;1.87;;;21.20;99.90;;;;;;5033855;28;20460;-92
2023/07/28 09:46:06;;;;;;;1.70;1.60;;;21.20;99.90;;;;;;5018192;28;20442;-92
2023/07/28 09:48:34;;;;;;;4.70;2.33;;;21.20;99.90;;;;;;5023789;28;20485;-92
2023/07/28 09:51:19;;;;;;;2.60;2.40;;;21.20;99.90;;;;;;5035073;28;20448;-92
2023/07/28 09:53:54;;;;;;;2.50;2.30;;;21.20;99.90;;;;;;5038657;28;20466;-92
2023/07/28 09:56:28;;;;;;;2.40;2.20;;;21.30;99.90;;;;;;5038525;28;20535;-91
2023/07/28 09:58:56;;;;;;;1.90;1.70;;;21.30;99.90;;;;;;5039288;28;20476;-91
2023/07/28 10:01:24;;;;;;;2.20;1.90;;;21.40;99.90;;;;;;5038827;28;20467;-93
2023/07/28 10:03:51;;;;;;;2.07;1.87;;;21.40;99.90;;;;;;5037596;28;20529;-91
2023/07/28 10:06:19;;;;;;;2.70;1.90;;;21.30;99.90;;;;;;5030255;28;20452;-91
2023/07/28 10:08:48;;;;;;;2.17;1.97;;;21.20;99.90;;;;;;5039034;28;20478;-92
2023/07/28 10:11:16;;;;;;;2.27;1.70;;;21.20;99.90;;;;;;5038512;28;20437;-91
2023/07/28 10:13:46;;;;;;;2.77;2.53;;;21.10;99.90;;;;;;5038262;28;20453;-92
2023/07/28 10:16:14;;;;;;;2.40;2.00;;;21.00;99.90;;;;;;5033161;28;20496;-92
2023/07/28 10:18:41;;;;;;;2.57;1.90;;;21.00;99.90;;;;;;5016176;28;20468;-91
2023/07/28 10:21:13;;;;;;;2.10;1.90;;;21.00;99.90;;;;;;5015890;28;21043;-93
2023/07/28 10:24:10;;;;;;;2.07;1.87;;;21.00;99.90;;;;;;5039183;28;20445;-92
2023/07/28 10:26:41;;;;;;;2.20;1.87;;;21.00;99.90;;;;;;5024331;23;20505;-71
2023/07/28 10:29:12;;;;;;;1.60;1.40;;;21.10;99.90;;;;;;5011493;28;20487;-71
2023/07/28 10:31:50;;;;;;;1.43;1.20;;;21.10;99.90;;;;;;4991316;28;20460;-70
2023/07/28 10:34:17;;;;;;;1.37;1.27;;;21.10;99.90;;;;;;4991219;28;20475;-71
2023/07/28 10:36:46;;;;;;;2.20;1.40;;;21.10;99.90;;;;;;4993008;28;20464;-71
2023/07/28 10:39:18;;;;;;;1.77;1.53;;;21.20;99.90;;;;;;5000095;28;20568;-71
2023/07/28 10:42:06;;;;;;;1.40;1.30;;;21.20;99.90;;;;;;4998944;28;20846;-70
2023/07/28 10:44:34;;;;;;;1.50;1.40;;;21.30;99.90;;;;;;4997984;28;20553;-71
2023/07/28 10:47:02;;;;;;;1.53;1.27;;;21.40;99.90;;;;;;4990996;28;20477;-70
2023/07/28 10:49:29;;;;;;;1.57;1.47;;;21.50;99.90;;;;;;4991632;28;20463;-70
2023/07/28 10:51:57;;;;;;;1.40;1.30;;;21.50;99.90;;;;;;4998133;28;20469;-71
2023/07/28 10:54:25;;;;;;;1.60;1.40;;;21.60;99.90;;;;;;5011015;28;20465;-70
2023/07/28 10:56:51;;;;;;;1.87;1.40;;;21.70;99.90;;;;;;4995887;28;20469;-70
2023/07/28 10:59:18;;;;;;;1.87;1.50;;;21.80;99.90;;;;;;4991504;28;20494;-70
2023/07/28 11:01:45;;;;;;;1.67;1.47;;;21.90;99.90;;;;;;4991577;28;20958;-70
2023/07/28 11:04:14;;;;;;;1.67;1.53;;;22.00;99.90;;;;;;4991102;28;20481;-70
2023/07/28 11:06:43;;;;;;;2.27;1.70;;;22.10;99.90;;;;;;4991069;28;20513;-70
2023/07/28 11:09:10;;;;;;;1.80;1.70;;;22.20;99.90;;;;;;4991578;28;20485;-70
2023/07/28 11:11:39;;;;;;;1.93;1.73;;;22.40;99.90;;;;;;4990887;28;20476;-70
2023/07/28 11:14:07;;;;;;;1.77;1.40;;;22.40;99.90;;;;;;4991431;28;20472;-71
2023/07/28 11:16:35;;;;;;;2.10;1.77;;;22.30;99.90;;;;;;4990422;28;20517;-71
2023/07/28 11:19:03;;;;;;;1.67;1.53;;;22.30;99.90;;;;;;4991398;28;20578;-71
2023/07/28 11:21:30;;;;;;;1.57;1.30;;;22.30;99.90;;;;;;4991349;28;20470;-71
2023/07/28 11:23:57;;;;;;;1.83;1.50;;;22.30;99.90;;;;;;4991471;28;20466;-71
2023/07/28 11:26:24;;;;;;;3.20;1.70;;;22.40;99.90;;;;;;4990284;28;20550;-71
2023/07/28 11:28:54;;;;;;;1.97;1.87;;;22.40;99.90;;;;;;4991295;28;20989;-71
2023/07/28 11:31:25;;;;;;;1.80;1.53;;;22.40;99.90;;;;;;5007373;23;21739;-72
2023/07/28 11:33:53;;;;;;;2.00;1.80;;;22.40;99.90;;;;;;5011134;28;20467;-71
2023/07/28 11:36:23;;;;;;;2.40;2.07;;;22.20;99.90;;;;;;5010253;28;20473;-72
2023/07/28 11:38:51;;;;;;;3.40;1.83;;;22.10;99.90;;;;;;5011184;28;20477;-69
2023/07/28 11:41:18;;;;;;;2.20;2.00;;;22.10;99.90;;;;;;5009398;28;20465;-73
2023/07/28 11:43:48;;;;;;;2.00;1.80;;;22.10;99.90;;;;;;5003790;28;20468;-74
2023/07/28 11:46:34;;;;;;;2.10;1.90;;;22.00;99.90;;;;;;5009931;28;20464;-75
2023/07/28 11:49:08;;;;;;;1.97;1.70;;;21.90;99.90;;;;;;5010125;28;20480;-73
2023/07/28 11:51:39;;;;;;;2.10;1.80;;;21.80;99.90;;;;;;5010126;28;20456;-74
2023/07/28 11:54:07;;;;;;;2.53;2.30;;;21.50;99.90;;;;;;5009723;28;20472;-74
2023/07/28 11:56:35;;;;;;;2.07;1.87;;;21.40;99.90;;;;;;5009704;28;20516;-74
2023/07/28 11:59:02;;;;;;;2.20;2.00;;;21.30;99.90;;;;;;5010147;28;21028;-72
2023/07/28 12:01:29;;;;;;;2.37;2.00;;;21.20;99.90;;;;;;5009067;28;20544;-72
2023/07/28 12:04:00;;;;;;;2.50;2.10;;;21.10;99.90;;;;;;5009295;28;20469;-76
2023/07/28 12:06:27;;;;;;;2.37;2.17;;;21.10;99.90;;;;;;5009085;28;20456;-72
2023/07/28 12:09:04;;;;;;;2.07;1.87;;;21.10;99.90;;;;;;5009758;28;20480;-75
2023/07/28 12:11:32;;;;;;;3.63;2.00;;;21.10;99.90;;;;;;5009612;28;20468;-76
2023/07/28 12:14:00;;;;;;;2.27;2.07;;;21.10;99.90;;;;;;5009314;28;20464;-75
2023/07/28 12:16:39;;;;;;;2.70;2.43;;;21.10;99.90;;;;;;5008870;28;20493;-74
2023/07/28 12:19:08;;;;;;;2.27;2.00;;;21.10;99.90;;;;;;5009545;28;20500;-75
2023/07/28 12:21:34;;;;;;;2.13;1.93;;;21.10;99.90;;;;;;5009552;28;20481;-72
2023/07/28 12:24:01;;;;;;;2.20;2.00;;;21.20;99.90;;;;;;5009461;28;20471;-72
2023/07/28 12:26:28;;;;;;;2.53;2.00;;;21.30;99.90;;;;;;5008463;28;20459;-72
2023/07/28 12:28:54;;;;;;;2.50;2.03;;;21.30;99.90;;;;;;5009754;28;20487;-70
2023/07/28 12:31:21;;;;;;;2.27;2.07;;;21.40;99.90;;;;;;5008633;28;20471;-71
2023/07/28 12:33:48;;;;;;;2.63;2.33;;;21.50;99.90;;;;;;5009656;28;20468;-71
2023/07/28 12:36:17;;;;;;;2.63;2.43;;;21.60;99.90;;;;;;5009098;28;20842;-74
2023/07/28 12:38:43;;;;;;;2.40;2.20;;;21.60;99.90;;;;;;5008909;28;20567;-77
2023/07/28 12:41:10;;;;;;;2.87;2.57;;;21.70;99.90;;;;;;5009566;28;20474;-73
2023/07/28 12:43:37;;;;;;;2.67;2.40;;;21.90;99.90;;;;;;5009679;28;20974;-72
2023/07/28 12:46:04;;;;;;;2.60;2.40;;;22.10;99.90;;;;;;5009324;28;20453;-73
2023/07/28 12:48:31;;;;;;;2.23;2.03;;;22.10;99.90;;;;;;5009367;28;20550;-75
2023/07/28 12:50:58;;;;;;;3.53;2.30;;;22.20;99.90;;;;;;5009154;28;20473;-74
2023/07/28 12:53:26;;;;;;;2.60;2.40;;;22.20;99.90;;;;;;5009731;28;20934;-76
2023/07/28 12:55:53;;;;;;;2.07;1.87;;;22.10;99.90;;;;;;5002115;28;20484;-76
2023/07/28 12:58:20;;;;;;;2.43;2.23;;;22.10;99.90;;;;;;5009992;28;20483;-74
2023/07/28 13:00:46;;;;;;;2.70;2.43;;;22.00;99.90;;;;;;5009013;28;20465;-76
2023/07/28 13:03:13;;;;;;;3.37;2.60;;;22.00;99.90;;;;;;5009308;28;20467;-76
2023/07/28 13:05:43;;;;;;;2.93;2.40;;;21.90;99.90;;;;;;5009513;28;20465;-75
2023/07/28 13:08:09;;;;;;;3.10;2.63;;;21.90;99.90;;;;;;5008810;28;20488;-75
2023/07/28 13:10:37;;;;;;;3.00;2.80;;;21.90;99.90;;;;;;5009222;28;20796;-73
2023/07/28 13:13:04;;;;;;;3.77;2.50;;;21.90;99.90;;;;;;5009207;28;20498;-73
2023/07/28 13:15:31;;;;;;;3.10;2.77;;;21.90;99.90;;;;;;5009654;28;20515;-73